createdAt,value
2024-04-19T00:02:23.769Z,1.50
2024-04-19T00:04:50.962Z,1.80
2024-04-19T00:07:20.732Z,1.80
2024-04-19T00:09:47.901Z,1.90
2024-04-19T00:12:20.680Z,1.70
2024-04-19T00:14:47.830Z,1.83
2024-04-19T00:17:17.665Z,1.80
2024-04-19T00:19:44.743Z,1.70
2024-04-19T00:22:14.818Z,1.50
2024-04-19T00:24:42.091Z,1.60
2024-04-19T00:27:12.043Z,1.50
2024-04-19T00:29:41.820Z,1.47
2024-04-19T00:32:11.648Z,1.80
2024-04-19T00:34:38.900Z,1.60
2024-04-19T00:37:09.137Z,1.77
2024-04-19T00:39:36.207Z,2.03
2024-04-19T00:42:05.885Z,1.90
2024-04-19T00:44:33.362Z,1.80
2024-04-19T00:47:07.327Z,1.90
2024-04-19T00:49:34.610Z,1.90
2024-04-19T00:52:07.596Z,1.80
2024-04-19T00:54:35.529Z,1.60
2024-04-19T00:57:06.243Z,2.50
2024-04-19T00:59:33.539Z,1.67
2024-04-19T01:02:06.061Z,1.50
2024-04-19T01:04:33.330Z,1.93
2024-04-19T01:07:03.082Z,2.03
2024-04-19T01:09:30.161Z,1.53
2024-04-19T01:11:59.876Z,1.50
2024-04-19T01:14:27.005Z,1.80
2024-04-19T01:16:56.712Z,1.90
2024-04-19T01:19:26.532Z,1.63
2024-04-19T01:21:56.684Z,1.90
2024-04-19T01:24:32.618Z,1.77
2024-04-19T01:27:05.219Z,1.47
2024-04-19T01:29:32.292Z,2.07
2024-04-19T01:32:03.047Z,1.80
2024-04-19T01:34:30.228Z,1.80
2024-04-19T01:37:00.212Z,1.70
2024-04-19T01:39:27.338Z,1.63
2024-04-19T01:41:58.302Z,1.83
2024-04-19T01:44:31.568Z,1.70
2024-04-19T01:46:58.749Z,1.60
2024-04-19T01:49:28.522Z,1.90
2024-04-19T01:51:55.669Z,1.67
2024-04-19T01:54:25.386Z,1.60
2024-04-19T01:56:55.873Z,1.97
2024-04-19T01:59:28.764Z,2.00
2024-04-19T02:01:58.551Z,1.80
2024-04-19T02:04:29.026Z,1.73
2024-04-19T02:06:56.290Z,1.83
2024-04-19T02:09:25.952Z,1.60
2024-04-19T02:11:53.049Z,2.20
2024-04-19T02:14:22.828Z,1.77
2024-04-19T02:16:49.942Z,1.77
2024-04-19T02:19:23.589Z,2.30
2024-04-19T02:21:50.873Z,2.10
2024-04-19T02:24:20.616Z,1.97
2024-04-19T02:26:53.321Z,1.93
2024-04-19T02:29:38.835Z,2.30
2024-04-19T02:32:08.731Z,2.57
2024-04-19T02:34:45.489Z,1.90
2024-04-19T02:37:16.915Z,2.53
2024-04-19T02:39:46.617Z,1.97
2024-04-19T02:42:16.391Z,2.53
2024-04-19T02:44:46.084Z,2.43
2024-04-19T02:47:16.110Z,2.33
2024-04-19T02:49:48.465Z,2.70
2024-04-19T02:52:18.398Z,2.20
2024-04-19T02:54:45.478Z,2.63
2024-04-19T02:57:15.486Z,2.60
2024-04-19T02:59:45.142Z,2.57
2024-04-19T03:02:14.817Z,2.67
2024-04-19T03:04:45.617Z,2.40
2024-04-19T03:07:17.947Z,2.70
2024-04-19T03:09:50.733Z,2.87
2024-04-19T03:12:20.584Z,3.00
2024-04-19T03:14:50.468Z,3.13
2024-04-19T03:17:20.230Z,3.07
2024-04-19T03:19:50.014Z,3.17
2024-04-19T03:22:22.373Z,3.43
2024-04-19T03:24:52.092Z,2.87
2024-04-19T03:27:21.885Z,3.37
2024-04-19T03:29:53.084Z,3.83
2024-04-19T03:32:24.070Z,4.17
2024-04-19T03:34:53.994Z,3.20
2024-04-19T03:37:26.310Z,3.87
2024-04-19T03:39:56.177Z,3.87
2024-04-19T03:42:26.010Z,4.03
2024-04-19T03:45:11.576Z,3.90
2024-04-19T03:47:44.270Z,4.40
2024-04-19T03:50:13.994Z,4.17
2024-04-19T03:52:46.348Z,4.53
2024-04-19T03:55:16.003Z,4.20
2024-04-19T03:57:46.305Z,4.40
2024-04-19T04:00:16.669Z,4.57
2024-04-19T04:02:46.509Z,4.10
2024-04-19T04:05:16.765Z,5.17
2024-04-19T04:07:49.573Z,4.67
2024-04-19T04:10:19.377Z,4.90
2024-04-19T04:12:51.011Z,3.67
2024-04-19T04:15:21.647Z,5.10
2024-04-19T04:17:51.571Z,4.70
2024-04-19T04:20:21.379Z,4.93
2024-04-19T04:22:53.732Z,4.30
2024-04-19T04:25:28.177Z,4.77
2024-04-19T04:27:58.041Z,4.70
2024-04-19T04:30:28.705Z,4.00
2024-04-19T04:32:58.492Z,4.47
2024-04-19T04:35:28.163Z,4.70
2024-04-19T04:38:00.863Z,5.07
2024-04-19T04:40:33.260Z,4.80
2024-04-19T04:43:03.093Z,4.87
2024-04-19T04:45:33.023Z,4.10
2024-04-19T04:48:02.749Z,4.43
2024-04-19T04:50:32.368Z,4.23
2024-04-19T05:10:51.728Z,4.00
2024-04-19T06:11:22.576Z,4.07
2024-04-19T06:13:52.960Z,3.80
2024-04-19T06:16:22.615Z,4.20
2024-04-19T06:18:52.409Z,4.33
2024-04-19T06:21:22.260Z,4.33
2024-04-19T06:23:51.954Z,4.10
2024-04-19T06:26:24.274Z,3.50
2024-04-19T06:28:54.007Z,3.40
2024-04-19T06:31:23.772Z,3.37
2024-04-19T06:33:53.518Z,3.23
2024-04-19T06:36:23.279Z,3.40
2024-04-19T06:38:54.478Z,3.83
2024-04-19T06:41:26.780Z,3.70
2024-04-19T06:43:56.534Z,3.67
2024-04-19T06:46:26.234Z,3.27
2024-04-19T06:48:56.284Z,3.73
2024-04-19T06:51:26.172Z,3.70
2024-04-19T06:53:55.801Z,3.50
2024-04-19T06:56:28.079Z,4.47
2024-04-19T06:58:58.123Z,3.63
2024-04-19T07:01:27.949Z,3.67
2024-04-19T07:03:57.901Z,3.27
2024-04-19T07:06:35.653Z,4.03
2024-04-19T07:09:11.638Z,3.87
2024-04-19T07:11:44.072Z,3.57
2024-04-19T07:14:13.733Z,3.43
2024-04-19T07:16:43.598Z,2.93
2024-04-19T07:19:13.344Z,3.30
2024-04-19T07:21:43.279Z,3.17
2024-04-19T07:24:12.933Z,3.40
2024-04-19T07:26:45.520Z,3.10
2024-04-19T07:29:16.914Z,3.73
2024-04-19T07:31:46.996Z,3.13
2024-04-19T07:34:16.686Z,3.90
2024-04-19T07:36:46.343Z,3.30
2024-04-19T07:39:16.073Z,3.83
2024-04-19T07:41:48.305Z,3.10
2024-04-19T07:44:18.105Z,4.10
2024-04-19T07:46:47.809Z,4.47
2024-04-19T07:49:17.901Z,4.57
2024-04-19T07:51:47.744Z,3.83
2024-04-19T07:54:17.395Z,3.97
2024-04-19T07:56:50.224Z,3.53
2024-04-19T07:59:19.984Z,3.90
2024-04-19T08:01:49.660Z,3.97
2024-04-19T08:04:19.534Z,4.07
2024-04-19T08:06:49.325Z,3.63
2024-04-19T08:09:19.342Z,4.53
2024-04-19T08:11:51.702Z,4.10
2024-04-19T08:14:21.430Z,4.37
2024-04-19T08:16:51.154Z,4.00
2024-04-19T08:19:20.930Z,4.83
2024-04-19T08:21:50.653Z,4.53
2024-04-19T08:24:21.593Z,4.10
2024-04-19T08:26:53.932Z,4.57
2024-04-19T08:29:30.264Z,4.87
2024-04-19T08:32:06.785Z,5.27
2024-04-19T08:34:36.503Z,5.03
2024-04-19T08:37:06.137Z,4.57
2024-04-19T08:39:35.869Z,4.93
2024-04-19T08:42:12.176Z,4.90
2024-04-19T08:44:47.088Z,4.87
2024-04-19T08:47:19.070Z,4.90
2024-04-19T08:49:50.616Z,4.10
2024-04-19T08:52:39.934Z,3.77
2024-04-19T08:55:13.056Z,4.20
2024-04-19T08:57:46.944Z,4.30
2024-04-19T09:00:19.171Z,5.00
2024-04-19T09:02:50.836Z,4.60
2024-04-19T09:05:20.740Z,3.93
2024-04-19T09:07:50.835Z,4.53
2024-04-19T09:10:22.537Z,4.53
2024-04-19T09:12:55.127Z,4.43
2024-04-19T09:15:24.818Z,4.07
2024-04-19T09:17:54.925Z,4.47
2024-04-19T09:20:25.097Z,4.43
2024-04-19T09:22:54.886Z,4.23
2024-04-19T09:25:24.652Z,3.70
2024-04-19T09:27:57.583Z,4.50
2024-04-19T09:30:28.807Z,4.43
2024-04-19T09:32:58.969Z,4.60
2024-04-19T09:35:32.167Z,4.57
2024-04-19T09:38:02.560Z,3.90
2024-04-19T09:40:34.146Z,4.10
2024-04-19T09:43:09.413Z,4.20
2024-04-19T09:45:46.936Z,4.37
2024-04-19T09:48:20.603Z,3.83
2024-04-19T09:50:51.717Z,3.77
2024-04-19T09:53:30.063Z,3.30
2024-04-19T09:56:09.105Z,3.57
2024-04-19T09:58:42.602Z,3.67
2024-04-19T10:01:12.727Z,4.10
2024-04-19T10:03:43.726Z,3.90
2024-04-19T10:06:16.268Z,3.97
2024-04-19T10:08:47.405Z,3.87
2024-04-19T10:11:17.633Z,3.50
2024-04-19T10:13:50.148Z,3.73
2024-04-19T10:16:19.974Z,3.80
2024-04-19T10:18:51.608Z,3.50
2024-04-19T10:21:21.422Z,3.40
2024-04-19T10:23:51.229Z,3.47
2024-04-19T10:26:24.620Z,3.40
2024-04-19T10:28:59.636Z,3.57
2024-04-19T10:31:29.328Z,2.93
2024-04-19T10:33:59.017Z,2.87
2024-04-19T10:36:34.778Z,2.73
2024-04-19T10:39:05.156Z,2.10
2024-04-19T10:41:34.943Z,2.13
2024-04-19T10:44:15.163Z,2.70
2024-04-19T10:46:45.444Z,2.13
2024-04-19T10:49:16.370Z,2.73
2024-04-19T10:51:47.156Z,2.50
2024-04-19T10:54:18.101Z,2.40
2024-04-19T10:56:47.761Z,2.27
2024-04-19T10:59:20.028Z,1.63
2024-04-19T11:01:50.027Z,1.97
2024-04-19T11:04:19.942Z,1.60
2024-04-19T11:06:49.770Z,2.07
2024-04-19T11:09:20.149Z,1.40
2024-04-19T11:11:50.307Z,1.73
2024-04-19T11:14:24.593Z,1.70
2024-04-19T11:16:54.382Z,1.77
2024-04-19T11:19:24.169Z,1.63
2024-04-19T11:21:54.997Z,1.77
2024-04-19T11:24:31.415Z,1.53
2024-04-19T11:27:01.182Z,1.40
2024-04-19T11:29:33.665Z,0.83
2024-04-19T11:32:08.135Z,1.30
2024-04-19T11:34:40.209Z,1.00
2024-04-19T11:37:11.171Z,0.70
2024-04-19T11:39:42.508Z,1.20
2024-04-19T11:42:13.338Z,0.70
2024-04-19T11:44:46.027Z,0.70
2024-04-19T11:47:15.783Z,0.57
2024-04-19T11:49:45.487Z,0.60
2024-04-19T11:52:15.302Z,0.53
2024-04-19T11:54:45.208Z,0.60
2024-04-19T11:57:15.075Z,0.70
2024-04-19T11:59:47.475Z,0.90
2024-04-19T12:02:17.112Z,0.97
2024-04-19T12:04:46.860Z,0.70
2024-04-19T12:07:17.539Z,0.80
2024-04-19T12:09:47.845Z,0.70
2024-04-19T12:13:08.362Z,0.97
2024-04-19T12:15:59.279Z,0.90
2024-04-19T12:18:03.531Z,1.23
2024-04-19T12:20:46.618Z,1.20
2024-04-19T12:23:22.501Z,1.13
2024-04-19T12:25:53.547Z,1.17
2024-04-19T12:28:26.541Z,1.20
2024-04-19T12:30:59.468Z,2.53
2024-04-19T12:33:29.409Z,1.60
2024-04-19T12:35:59.161Z,1.50
2024-04-19T12:38:29.092Z,1.43
2024-04-19T12:40:59.698Z,1.10
2024-04-19T12:43:29.635Z,1.30
2024-04-19T12:46:33.278Z,1.13
2024-04-19T12:49:08.041Z,1.30
2024-04-19T12:51:43.904Z,1.40
2024-04-19T12:54:15.906Z,1.17
2024-04-19T12:56:45.859Z,1.30
2024-04-19T12:59:15.923Z,1.10
2024-04-19T13:01:48.315Z,1.10
2024-04-19T13:04:20.755Z,1.00
2024-04-19T13:06:50.809Z,1.20
2024-04-19T13:09:20.626Z,1.20
2024-04-19T13:11:50.525Z,1.07
2024-04-19T13:14:23.249Z,1.50
2024-04-19T13:16:55.912Z,1.13
2024-04-19T13:19:25.535Z,1.60
2024-04-19T13:21:55.302Z,1.50
2024-04-19T13:24:25.063Z,1.37
2024-04-19T13:26:54.805Z,1.33
2024-04-19T13:29:24.632Z,1.23
2024-04-19T13:31:57.742Z,1.53
2024-04-19T13:34:28.663Z,1.37
2024-04-19T13:36:58.812Z,1.40
2024-04-19T13:39:30.509Z,1.73
2024-04-19T13:42:00.536Z,1.30
2024-04-19T13:44:31.764Z,1.40
2024-04-19T13:47:06.243Z,1.50
2024-04-19T13:49:36.059Z,1.30
2024-04-19T13:52:06.461Z,1.60
2024-04-19T13:54:36.162Z,1.20
2024-04-19T13:57:06.178Z,1.30
2024-04-19T13:59:35.934Z,1.50
2024-04-19T14:02:08.549Z,1.20
2024-04-19T14:04:38.310Z,1.50
2024-04-19T14:07:08.306Z,1.33
2024-04-19T14:09:39.810Z,1.40
2024-04-19T14:12:10.047Z,1.30
2024-04-19T14:14:40.044Z,1.30
2024-04-19T14:17:12.510Z,1.30
2024-04-19T14:19:42.300Z,1.50
2024-04-19T14:22:13.340Z,1.63
2024-04-19T14:24:43.077Z,1.30
2024-04-19T14:27:13.153Z,1.57
2024-04-19T14:29:44.300Z,1.60
2024-04-19T14:32:18.497Z,1.60
2024-04-19T14:34:48.441Z,1.83
2024-04-19T14:37:18.247Z,1.47
2024-04-19T14:39:48.021Z,1.53
2024-04-19T14:42:17.818Z,1.77
2024-04-19T14:44:47.498Z,2.27
2024-04-19T14:47:19.937Z,2.20
2024-04-19T14:49:49.781Z,1.70
2024-04-19T14:52:19.585Z,1.00
2024-04-19T14:54:51.135Z,1.50
2024-04-19T14:57:21.822Z,1.20
2024-04-19T14:59:51.688Z,1.10
2024-04-19T15:02:24.072Z,1.10
2024-04-19T15:04:53.811Z,2.50
2024-04-19T15:07:24.523Z,1.10
2024-04-19T15:09:54.501Z,0.73
2024-04-19T15:12:24.398Z,0.87
2024-04-19T15:14:54.099Z,1.30
2024-04-19T15:17:26.661Z,1.10
2024-04-19T15:19:56.383Z,0.90
2024-04-19T15:22:27.286Z,1.00
2024-04-19T15:24:57.039Z,1.20
2024-04-19T15:27:26.890Z,1.07
2024-04-19T15:29:57.104Z,1.00
2024-04-19T15:32:30.737Z,1.17
2024-04-19T15:35:00.560Z,1.07
2024-04-19T15:37:30.389Z,1.20
2024-04-19T15:40:00.283Z,1.20
2024-04-19T15:42:30.127Z,1.00
2024-04-19T15:44:59.880Z,1.00
2024-04-19T15:47:32.328Z,0.97
2024-04-19T15:50:02.418Z,0.97
2024-04-19T15:52:32.783Z,1.03
2024-04-19T15:55:02.866Z,0.80
2024-04-19T15:57:32.791Z,1.20
2024-04-19T16:00:02.563Z,0.70
2024-04-19T16:02:34.866Z,0.60
2024-04-19T16:05:02.856Z,0.90
2024-04-19T16:07:32.858Z,0.70
2024-04-19T16:10:02.703Z,1.00
2024-04-19T16:12:32.487Z,1.10
2024-04-19T16:15:02.396Z,0.90
2024-04-19T16:17:34.775Z,0.90
2024-04-19T16:20:07.253Z,1.30
2024-04-19T16:22:38.763Z,1.10
2024-04-19T16:25:09.037Z,1.00
2024-04-19T16:27:38.743Z,0.80
2024-04-19T16:30:09.776Z,1.17
2024-04-19T16:32:42.183Z,1.27
2024-04-19T16:35:11.915Z,0.93
2024-04-19T16:37:43.611Z,1.03
2024-04-19T16:40:13.817Z,1.00
2024-04-19T16:42:41.036Z,1.10
2024-04-19T16:45:11.045Z,0.83
2024-04-19T16:47:51.157Z,0.93
2024-04-19T16:50:21.482Z,1.07
2024-04-19T16:52:51.198Z,1.10
2024-04-19T16:55:21.029Z,1.00
2024-04-19T16:57:50.739Z,1.30
2024-04-19T17:00:20.740Z,1.63
2024-04-19T17:02:53.011Z,1.50
2024-04-19T17:05:20.265Z,1.70
2024-04-19T17:07:49.979Z,2.07
2024-04-19T17:10:20.001Z,2.17
2024-04-19T17:12:49.873Z,2.00
2024-04-19T17:15:19.751Z,2.43
2024-04-19T17:17:55.352Z,2.10
2024-04-19T17:20:25.135Z,2.23
2024-04-19T17:22:54.812Z,1.60
2024-04-19T17:25:24.560Z,1.70
2024-04-19T17:27:54.411Z,1.60
2024-04-19T17:30:24.630Z,1.80
2024-04-19T17:32:57.208Z,1.47
2024-04-19T17:35:26.911Z,1.80
2024-04-19T17:37:56.694Z,2.27
2024-04-19T17:40:27.265Z,2.07
2024-04-19T17:42:57.185Z,1.60
2024-04-19T17:45:27.198Z,1.33
2024-04-19T17:47:59.674Z,1.60
2024-04-19T17:50:29.535Z,1.80
2024-04-19T17:52:59.663Z,1.93
2024-04-19T17:55:30.417Z,1.87
2024-04-19T17:58:01.035Z,2.30
2024-04-19T18:00:34.579Z,2.20
2024-04-19T18:03:07.636Z,2.50
2024-04-19T18:05:37.446Z,1.87
2024-04-19T18:08:07.922Z,1.70
2024-04-19T18:10:37.864Z,1.60
2024-04-19T18:13:08.157Z,3.13
2024-04-19T18:15:37.962Z,4.70
2024-04-19T18:18:10.754Z,3.10
2024-04-19T18:20:44.830Z,2.47
2024-04-19T18:23:16.981Z,2.30
2024-04-19T18:25:48.673Z,2.03
2024-04-19T18:28:20.934Z,3.63
2024-04-19T18:30:51.178Z,3.00
2024-04-19T18:33:23.869Z,4.13
2024-04-19T18:35:57.148Z,2.33
2024-04-19T18:41:02.413Z,1.50
2024-04-19T18:43:33.115Z,1.50
2024-04-19T18:46:02.857Z,1.40
2024-04-19T18:48:35.568Z,1.53
2024-04-19T18:51:05.717Z,1.30
2024-04-19T18:53:35.401Z,1.40
2024-04-19T18:56:05.322Z,1.90
2024-04-19T18:58:35.031Z,1.63
2024-04-19T19:01:12.444Z,1.80
2024-04-19T19:03:45.432Z,1.97
2024-04-19T19:06:15.885Z,1.87
2024-04-19T19:08:45.603Z,2.17
2024-04-19T19:11:15.787Z,2.03
2024-04-19T19:13:47.061Z,2.23
2024-04-19T19:16:16.813Z,2.93
2024-04-19T19:18:49.417Z,2.90
2024-04-19T19:21:19.161Z,3.00
2024-04-19T19:23:48.872Z,2.63
2024-04-19T19:26:18.646Z,3.73
2024-04-19T19:28:49.231Z,2.73
2024-04-19T19:31:19.288Z,2.40
2024-04-19T19:33:51.553Z,2.57
2024-04-19T19:36:21.237Z,2.27
2024-04-19T19:38:51.899Z,2.13
2024-04-19T19:41:21.561Z,2.50
2024-04-19T19:43:51.240Z,1.73
2024-04-19T19:46:20.900Z,1.60
2024-04-19T19:48:53.841Z,2.20
2024-04-19T19:51:23.563Z,2.10
2024-04-19T19:53:53.266Z,1.83
2024-04-19T19:56:22.917Z,2.20
2024-04-19T19:58:55.763Z,2.43
2024-04-19T20:01:42.108Z,2.57
2024-04-19T20:04:27.045Z,4.03
2024-04-19T20:06:57.109Z,2.80
2024-04-19T20:09:27.040Z,3.00
2024-04-19T20:11:56.840Z,1.80
2024-04-19T20:14:27.089Z,2.17
2024-04-19T20:16:56.822Z,1.70
2024-04-19T20:19:29.154Z,1.97
2024-04-19T20:22:01.370Z,2.03
2024-04-19T20:24:31.215Z,1.60
2024-04-19T20:27:01.747Z,2.00
2024-04-19T20:29:32.246Z,1.60
2024-04-19T20:32:03.997Z,1.40
2024-04-19T20:34:36.370Z,1.77
2024-04-19T20:37:07.033Z,1.47
2024-04-19T20:39:36.972Z,2.00
2024-04-19T20:42:07.089Z,2.23
2024-04-19T20:44:36.804Z,2.33
2024-04-19T20:47:06.552Z,2.30
2024-04-19T20:49:38.974Z,2.17
2024-04-19T20:52:09.982Z,2.07
2024-04-19T20:54:39.648Z,2.20
2024-04-19T20:57:09.360Z,2.70
2024-04-19T20:59:39.002Z,2.20
2024-04-19T21:02:09.285Z,2.40
2024-04-19T21:04:41.617Z,2.30
2024-04-19T21:07:11.404Z,2.27
2024-04-19T21:09:41.149Z,2.37
2024-04-19T21:12:11.563Z,1.70
2024-04-19T21:14:41.295Z,1.97
2024-04-19T21:17:10.968Z,1.90
2024-04-19T21:19:43.386Z,1.60
2024-04-19T21:22:14.171Z,1.93
2024-04-19T21:24:43.912Z,1.60
2024-04-19T21:27:14.635Z,2.97
2024-04-19T21:29:44.262Z,1.83
2024-04-19T21:32:14.015Z,1.50
2024-04-19T21:34:47.116Z,2.00
2024-04-19T21:37:16.881Z,2.03
2024-04-19T21:39:46.699Z,2.13
2024-04-19T21:42:17.063Z,1.50
2024-04-19T21:44:49.521Z,1.73
2024-04-19T21:47:19.249Z,1.60
2024-04-19T21:49:51.641Z,1.70
2024-04-19T21:52:21.306Z,1.63
2024-04-19T21:54:50.943Z,1.47
2024-04-19T21:57:20.663Z,1.90
2024-04-19T21:59:50.499Z,1.70
2024-04-19T22:02:20.406Z,2.13
2024-04-19T22:04:53.157Z,2.03
2024-04-19T22:07:22.960Z,1.67
2024-04-19T22:09:52.650Z,1.97
2024-04-19T22:12:23.022Z,2.40
2024-04-19T22:14:56.267Z,2.03
2024-04-19T22:17:28.151Z,2.20
2024-04-19T22:20:01.533Z,2.23
2024-04-19T22:22:34.292Z,2.13
2024-04-19T22:25:04.181Z,2.03
2024-04-19T22:27:34.170Z,2.57
2024-04-19T22:30:04.436Z,1.87
2024-04-19T22:32:34.230Z,2.37
2024-04-19T22:35:06.921Z,2.53
2024-04-19T22:37:36.928Z,2.47
2024-04-19T22:40:07.783Z,2.30
2024-04-19T22:42:37.609Z,2.20
2024-04-19T22:45:08.528Z,2.50
2024-04-19T22:47:38.307Z,2.60
2024-04-19T22:50:11.124Z,2.30
2024-04-19T22:52:41.056Z,2.33
2024-04-19T22:55:11.145Z,2.50
2024-04-19T22:57:40.883Z,2.23
2024-04-19T23:00:13.947Z,2.43
2024-04-19T23:02:43.764Z,2.40
2024-04-19T23:05:16.087Z,2.43
2024-04-19T23:07:45.929Z,2.43
2024-04-19T23:10:15.711Z,2.40
2024-04-19T23:12:45.497Z,3.23
2024-04-19T23:15:15.507Z,2.63
2024-04-19T23:17:45.317Z,3.07
2024-04-19T23:20:17.934Z,2.27
2024-04-19T23:22:47.622Z,2.27
2024-04-19T23:25:17.458Z,2.47
2024-04-19T23:27:47.235Z,2.57
2024-04-19T23:30:17.120Z,2.80
2024-04-19T23:32:46.954Z,3.03
2024-04-19T23:35:19.637Z,2.90
2024-04-19T23:37:49.263Z,3.10
2024-04-19T23:40:19.088Z,3.33
2024-04-19T23:42:48.799Z,2.80
2024-04-19T23:45:18.609Z,2.70
2024-04-19T23:47:48.477Z,2.77
2024-04-19T23:50:22.957Z,2.60
2024-04-19T23:52:52.634Z,3.03
2024-04-19T23:55:22.621Z,2.67
2024-04-19T23:57:52.606Z,2.73
